sensor_id;sensor_type;location;lat;lon;timestamp;pressure;altitude;pressure_sealevel;temperature;humidity
72857;BME280;62742;52.136;4.500;2023-07-29T00:01:49;100771.88;;;17.81;90.34
72857;BME280;62742;52.136;4.500;2023-07-29T00:04:15;100765.06;;;17.94;88.98
72857;BME280;62742;52.136;4.500;2023-07-29T00:06:42;100762.28;;;17.97;88.61
72857;BME280;62742;52.136;4.500;2023-07-29T00:09:09;100762.41;;;17.94;88.34
72857;BME280;62742;52.136;4.500;2023-07-29T00:11:35;100757.25;;;17.91;88.32
72857;BME280;62742;52.136;4.500;2023-07-29T00:14:02;100761.47;;;17.95;87.96
72857;BME280;62742;52.136;4.500;2023-07-29T00:16:28;100759.56;;;17.99;87.71
72857;BME280;62742;52.136;4.500;2023-07-29T00:18:55;100758.66;;;17.98;87.72
72857;BME280;62742;52.136;4.500;2023-07-29T00:21:21;100751.47;;;18.00;87.83
72857;BME280;62742;52.136;4.500;2023-07-29T00:23:48;100754.22;;;17.99;87.32
72857;BME280;62742;52.136;4.500;2023-07-29T00:26:14;100754.00;;;18.03;87.06
72857;BME280;62742;52.136;4.500;2023-07-29T00:28:41;100757.09;;;17.94;87.33
72857;BME280;62742;52.136;4.500;2023-07-29T00:31:08;100756.56;;;17.86;87.74
72857;BME280;62742;52.136;4.500;2023-07-29T00:33:34;100753.06;;;17.85;87.33
72857;BME280;62742;52.136;4.500;2023-07-29T00:36:02;100752.06;;;17.88;86.81
72857;BME280;62742;52.136;4.500;2023-07-29T00:38:28;100749.81;;;17.79;86.25
72857;BME280;62742;52.136;4.500;2023-07-29T00:40:57;100750.53;;;17.82;84.72
72857;BME280;62742;52.136;4.500;2023-07-29T00:43:25;100757.28;;;17.70;84.99
72857;BME280;62742;52.136;4.500;2023-07-29T00:45:52;100749.44;;;17.67;84.95
72857;BME280;62742;52.136;4.500;2023-07-29T00:48:19;100742.06;;;17.55;85.53
72857;BME280;62742;52.136;4.500;2023-07-29T00:50:46;100750.16;;;17.52;85.67
72857;BME280;62742;52.136;4.500;2023-07-29T00:53:12;100741.03;;;17.57;84.98
72857;BME280;62742;52.136;4.500;2023-07-29T00:55:39;100739.41;;;17.55;84.59
72857;BME280;62742;52.136;4.500;2023-07-29T00:58:07;100736.59;;;17.58;84.59
72857;BME280;62742;52.136;4.500;2023-07-29T01:00:33;100740.31;;;17.54;84.49
72857;BME280;62742;52.136;4.500;2023-07-29T01:03:00;100732.84;;;17.62;83.55
72857;BME280;62742;52.136;4.500;2023-07-29T01:05:31;100735.81;;;17.56;83.90
72857;BME280;62742;52.136;4.500;2023-07-29T01:08:11;100732.84;;;17.62;83.10
72857;BME280;62742;52.136;4.500;2023-07-29T01:14:04;100733.50;;;17.67;83.00
72857;BME280;62742;52.136;4.500;2023-07-29T01:16:44;100736.09;;;17.50;83.76
72857;BME280;62742;52.136;4.500;2023-07-29T01:22:36;100722.22;;;17.43;84.64
72857;BME280;62742;52.136;4.500;2023-07-29T01:25:03;100723.09;;;17.44;85.15
72857;BME280;62742;52.136;4.500;2023-07-29T01:27:30;100725.09;;;17.38;85.06
72857;BME280;62742;52.136;4.500;2023-07-29T01:29:58;100719.13;;;17.33;85.74
72857;BME280;62742;52.136;4.500;2023-07-29T01:32:31;100725.25;;;17.35;85.97
72857;BME280;62742;52.136;4.500;2023-07-29T01:35:36;100717.69;;;17.26;86.73
72857;BME280;62742;52.136;4.500;2023-07-29T01:38:17;100722.94;;;17.28;87.40
72857;BME280;62742;52.136;4.500;2023-07-29T01:41:10;100728.38;;;17.25;87.76
72857;BME280;62742;52.136;4.500;2023-07-29T01:43:37;100724.09;;;17.22;88.27
72857;BME280;62742;52.136;4.500;2023-07-29T01:46:10;100709.19;;;17.18;88.86
72857;BME280;62742;52.136;4.500;2023-07-29T01:48:40;100718.53;;;17.27;88.55
72857;BME280;62742;52.136;4.500;2023-07-29T01:51:07;100705.38;;;17.25;88.78
72857;BME280;62742;52.136;4.500;2023-07-29T01:53:37;100713.66;;;17.17;89.35
72857;BME280;62742;52.136;4.500;2023-07-29T01:56:03;100704.31;;;17.09;89.90
72857;BME280;62742;52.136;4.500;2023-07-29T01:58:30;100700.94;;;17.05;90.38
72857;BME280;62742;52.136;4.500;2023-07-29T02:00:56;100700.34;;;16.98;90.63
72857;BME280;62742;52.136;4.500;2023-07-29T02:03:23;100704.94;;;16.95;91.18
72857;BME280;62742;52.136;4.500;2023-07-29T02:05:49;100708.38;;;16.97;90.88
72857;BME280;62742;52.136;4.500;2023-07-29T02:08:15;100704.81;;;16.98;91.35
72857;BME280;62742;52.136;4.500;2023-07-29T02:10:42;100699.56;;;16.96;91.62
72857;BME280;62742;52.136;4.500;2023-07-29T02:13:11;100701.28;;;16.97;91.79
72857;BME280;62742;52.136;4.500;2023-07-29T02:15:39;100701.09;;;17.02;91.89
72857;BME280;62742;52.136;4.500;2023-07-29T02:18:05;100696.25;;;16.91;92.51
72857;BME280;62742;52.136;4.500;2023-07-29T02:20:33;100693.38;;;16.96;92.45
72857;BME280;62742;52.136;4.500;2023-07-29T02:22:59;100701.28;;;16.97;92.43
72857;BME280;62742;52.136;4.500;2023-07-29T02:25:26;100692.66;;;16.92;92.44
72857;BME280;62742;52.136;4.500;2023-07-29T02:27:52;100686.50;;;16.92;92.95
72857;BME280;62742;52.136;4.500;2023-07-29T02:30:20;100688.34;;;16.90;92.78
72857;BME280;62742;52.136;4.500;2023-07-29T02:32:47;100688.66;;;16.82;92.90
72857;BME280;62742;52.136;4.500;2023-07-29T02:35:14;100682.56;;;17.00;91.93
72857;BME280;62742;52.136;4.500;2023-07-29T02:37:40;100682.44;;;17.04;92.20
72857;BME280;62742;52.136;4.500;2023-07-29T02:40:07;100680.16;;;16.94;92.37
72857;BME280;62742;52.136;4.500;2023-07-29T02:42:34;100681.78;;;16.98;92.91
72857;BME280;62742;52.136;4.500;2023-07-29T02:45:02;100666.69;;;16.99;92.56
72857;BME280;62742;52.136;4.500;2023-07-29T02:47:29;100668.84;;;16.91;93.47
72857;BME280;62742;52.136;4.500;2023-07-29T02:49:55;100664.59;;;16.87;93.99
72857;BME280;62742;52.136;4.500;2023-07-29T02:52:22;100665.47;;;16.87;94.14
72857;BME280;62742;52.136;4.500;2023-07-29T02:54:48;100660.03;;;16.90;93.83
72857;BME280;62742;52.136;4.500;2023-07-29T02:57:15;100660.94;;;16.89;93.74
72857;BME280;62742;52.136;4.500;2023-07-29T02:59:43;100649.78;;;16.81;93.88
72857;BME280;62742;52.136;4.500;2023-07-29T03:02:09;100662.94;;;16.84;93.89
72857;BME280;62742;52.136;4.500;2023-07-29T03:04:36;100666.63;;;16.80;94.16
72857;BME280;62742;52.136;4.500;2023-07-29T03:07:02;100664.19;;;16.75;94.47
72857;BME280;62742;52.136;4.500;2023-07-29T03:09:29;100663.06;;;16.81;94.42
72857;BME280;62742;52.136;4.500;2023-07-29T03:11:56;100665.00;;;16.77;94.31
72857;BME280;62742;52.136;4.500;2023-07-29T03:14:22;100665.66;;;16.82;93.98
72857;BME280;62742;52.136;4.500;2023-07-29T03:16:49;100667.84;;;16.93;93.50
72857;BME280;62742;52.136;4.500;2023-07-29T03:19:15;100665.84;;;16.98;93.27
72857;BME280;62742;52.136;4.500;2023-07-29T03:21:43;100669.56;;;16.94;93.56
72857;BME280;62742;52.136;4.500;2023-07-29T03:24:10;100689.34;;;16.87;94.29
72857;BME280;62742;52.136;4.500;2023-07-29T03:26:36;100683.78;;;16.93;94.43
72857;BME280;62742;52.136;4.500;2023-07-29T03:29:03;100681.31;;;16.89;95.14
72857;BME280;62742;52.136;4.500;2023-07-29T03:31:29;100687.28;;;16.94;94.87
72857;BME280;62742;52.136;4.500;2023-07-29T03:33:56;100682.09;;;16.91;95.46
72857;BME280;62742;52.136;4.500;2023-07-29T03:36:22;100671.88;;;17.02;94.74
72857;BME280;62742;52.136;4.500;2023-07-29T03:38:51;100672.31;;;16.93;95.44
72857;BME280;62742;52.136;4.500;2023-07-29T03:41:18;100672.97;;;16.98;95.65
72857;BME280;62742;52.136;4.500;2023-07-29T03:43:44;100663.97;;;17.00;95.32
72857;BME280;62742;52.136;4.500;2023-07-29T03:46:11;100684.31;;;17.01;95.57
72857;BME280;62742;52.136;4.500;2023-07-29T03:48:37;100689.59;;;17.01;95.57
72857;BME280;62742;52.136;4.500;2023-07-29T03:51:04;100685.03;;;17.05;95.92
72857;BME280;62742;52.136;4.500;2023-07-29T03:53:30;100683.00;;;17.10;95.83
72857;BME280;62742;52.136;4.500;2023-07-29T03:55:56;100685.59;;;17.12;95.62
72857;BME280;62742;52.136;4.500;2023-07-29T03:58:23;100668.44;;;17.19;95.33
72857;BME280;62742;52.136;4.500;2023-07-29T04:00:49;100670.59;;;17.11;96.28
72857;BME280;62742;52.136;4.500;2023-07-29T04:03:16;100673.91;;;17.16;95.96
72857;BME280;62742;52.136;4.500;2023-07-29T04:05:45;100677.06;;;17.24;95.49
72857;BME280;62742;52.136;4.500;2023-07-29T04:08:12;100676.16;;;17.25;95.38
72857;BME280;62742;52.136;4.500;2023-07-29T04:10:40;100679.78;;;17.23;95.65
72857;BME280;62742;52.136;4.500;2023-07-29T04:13:06;100677.72;;;17.29;95.44
72857;BME280;62742;52.136;4.500;2023-07-29T04:15:33;100665.59;;;17.24;95.34
72857;BME280;62742;52.136;4.500;2023-07-29T04:17:59;100668.19;;;17.25;95.26
72857;BME280;62742;52.136;4.500;2023-07-29T04:20:26;100666.97;;;17.32;94.67
72857;BME280;62742;52.136;4.500;2023-07-29T04:22:52;100667.59;;;17.37;94.44
72857;BME280;62742;52.136;4.500;2023-07-29T04:25:18;100676.63;;;17.33;94.51
72857;BME280;62742;52.136;4.500;2023-07-29T04:27:45;100671.50;;;17.30;94.99
72857;BME280;62742;52.136;4.500;2023-07-29T04:30:11;100674.28;;;17.27;95.45
72857;BME280;62742;52.136;4.500;2023-07-29T04:32:38;100680.50;;;17.26;95.63
72857;BME280;62742;52.136;4.500;2023-07-29T04:35:05;100683.81;;;17.31;95.38
72857;BME280;62742;52.136;4.500;2023-07-29T04:37:31;100682.00;;;17.32;95.44
72857;BME280;62742;52.136;4.500;2023-07-29T04:39:58;100687.41;;;17.30;95.75
72857;BME280;62742;52.136;4.500;2023-07-29T04:42:24;100685.25;;;17.38;95.73
72857;BME280;62742;52.136;4.500;2023-07-29T04:44:51;100681.66;;;17.39;95.59
72857;BME280;62742;52.136;4.500;2023-07-29T04:47:17;100685.09;;;17.42;95.67
72857;BME280;62742;52.136;4.500;2023-07-29T04:49:44;100691.28;;;17.61;94.12
72857;BME280;62742;52.136;4.500;2023-07-29T04:52:10;100683.41;;;17.60;94.15
72857;BME280;62742;52.136;4.500;2023-07-29T04:54:37;100692.28;;;17.58;94.23
72857;BME280;62742;52.136;4.500;2023-07-29T04:57:04;100690.78;;;17.53;94.36
72857;BME280;62742;52.136;4.500;2023-07-29T04:59:30;100697.03;;;17.52;94.69
72857;BME280;62742;52.136;4.500;2023-07-29T05:01:57;100691.84;;;17.49;94.72
72857;BME280;62742;52.136;4.500;2023-07-29T05:04:23;100697.75;;;17.55;94.71
72857;BME280;62742;52.136;4.500;2023-07-29T05:06:50;100694.44;;;17.50;94.64
72857;BME280;62742;52.136;4.500;2023-07-29T05:09:18;100687.13;;;17.55;94.51
72857;BME280;62742;52.136;4.500;2023-07-29T05:11:46;100686.75;;;17.63;93.98
72857;BME280;62742;52.136;4.500;2023-07-29T05:14:13;100689.56;;;17.60;94.22
72857;BME280;62742;52.136;4.500;2023-07-29T05:16:41;100688.47;;;17.64;94.25
72857;BME280;62742;52.136;4.500;2023-07-29T05:19:08;100689.28;;;17.66;94.38
72857;BME280;62742;52.136;4.500;2023-07-29T05:21:35;100687.34;;;17.70;94.08
72857;BME280;62742;52.136;4.500;2023-07-29T05:24:01;100682.34;;;17.81;93.74
72857;BME280;62742;52.136;4.500;2023-07-29T05:26:28;100683.22;;;17.82;93.87
72857;BME280;62742;52.136;4.500;2023-07-29T05:28:54;100673.91;;;17.92;93.61
72857;BME280;62742;52.136;4.500;2023-07-29T05:31:22;100673.81;;;17.93;93.36
72857;BME280;62742;52.136;4.500;2023-07-29T05:33:49;100674.06;;;18.24;93.52
72857;BME280;62742;52.136;4.500;2023-07-29T05:36:15;100681.81;;;18.46;90.91
72857;BME280;62742;52.136;4.500;2023-07-29T05:38:41;100680.97;;;18.28;92.28
72857;BME280;62742;52.136;4.500;2023-07-29T05:41:08;100678.78;;;18.36;92.14
72857;BME280;62742;52.136;4.500;2023-07-29T05:43:36;100673.44;;;18.36;91.76
72857;BME280;62742;52.136;4.500;2023-07-29T05:46:03;100668.53;;;18.28;92.35
72857;BME280;62742;52.136;4.500;2023-07-29T05:48:29;100675.34;;;18.34;92.17
72857;BME280;62742;52.136;4.500;2023-07-29T05:50:56;100665.56;;;18.35;92.08
72857;BME280;62742;52.136;4.500;2023-07-29T05:53:22;100670.34;;;18.28;92.91
72857;BME280;62742;52.136;4.500;2023-07-29T05:55:49;100677.38;;;18.29;92.79
72857;BME280;62742;52.136;4.500;2023-07-29T05:58:15;100679.09;;;18.30;92.70
72857;BME280;62742;52.136;4.500;2023-07-29T06:00:42;100687.00;;;18.31;92.60
72857;BME280;62742;52.136;4.500;2023-07-29T06:03:08;100688.88;;;18.29;92.67
72857;BME280;62742;52.136;4.500;2023-07-29T06:05:35;100693.66;;;18.40;92.07
72857;BME280;62742;52.136;4.500;2023-07-29T06:08:01;100684.41;;;18.30;92.67
72857;BME280;62742;52.136;4.500;2023-07-29T06:10:28;100689.09;;;18.25;93.23
72857;BME280;62742;52.136;4.500;2023-07-29T06:12:54;100685.50;;;18.26;93.54
72857;BME280;62742;52.136;4.500;2023-07-29T06:15:21;100687.72;;;18.35;92.46
72857;BME280;62742;52.136;4.500;2023-07-29T06:17:49;100690.22;;;18.38;92.62
72857;BME280;62742;52.136;4.500;2023-07-29T06:20:15;100688.56;;;18.36;93.21
72857;BME280;62742;52.136;4.500;2023-07-29T06:22:42;100688.78;;;18.31;93.46
72857;BME280;62742;52.136;4.500;2023-07-29T06:25:09;100693.03;;;18.35;93.46
72857;BME280;62742;52.136;4.500;2023-07-29T06:27:35;100692.56;;;18.44;92.83
72857;BME280;62742;52.136;4.500;2023-07-29T06:30:02;100696.78;;;18.48;92.74
72857;BME280;62742;52.136;4.500;2023-07-29T06:32:29;100696.88;;;18.47;93.69
72857;BME280;62742;52.136;4.500;2023-07-29T06:34:55;100699.94;;;18.57;93.41
72857;BME280;62742;52.136;4.500;2023-07-29T06:37:22;100705.69;;;18.65;93.27
72857;BME280;62742;52.136;4.500;2023-07-29T06:39:48;100694.59;;;18.74;93.34
72857;BME280;62742;52.136;4.500;2023-07-29T06:42:15;100699.84;;;18.93;92.66
72857;BME280;62742;52.136;4.500;2023-07-29T06:44:41;100698.31;;;19.05;92.19
72857;BME280;62742;52.136;4.500;2023-07-29T06:47:08;100690.94;;;19.10;91.67
72857;BME280;62742;52.136;4.500;2023-07-29T06:49:34;100689.56;;;19.03;91.58
72857;BME280;62742;52.136;4.500;2023-07-29T06:52:01;100700.16;;;19.20;91.84
72857;BME280;62742;52.136;4.500;2023-07-29T06:54:27;100695.69;;;19.21;90.97
72857;BME280;62742;52.136;4.500;2023-07-29T06:56:54;100702.47;;;19.27;90.62
72857;BME280;62742;52.136;4.500;2023-07-29T06:59:20;100690.13;;;19.25;90.25
72857;BME280;62742;52.136;4.500;2023-07-29T07:01:47;100696.34;;;19.09;90.84
72857;BME280;62742;52.136;4.500;2023-07-29T07:04:13;100691.91;;;18.92;91.64
72857;BME280;62742;52.136;4.500;2023-07-29T07:06:40;100696.59;;;19.04;91.42
72857;BME280;62742;52.136;4.500;2023-07-29T07:09:06;100699.69;;;19.46;90.95
72857;BME280;62742;52.136;4.500;2023-07-29T07:11:33;100701.81;;;20.18;88.87
72857;BME280;62742;52.136;4.500;2023-07-29T07:14:01;100698.88;;;20.23;84.02
72857;BME280;62742;52.136;4.500;2023-07-29T07:16:28;100706.66;;;19.96;83.59
72857;BME280;62742;52.136;4.500;2023-07-29T07:18:56;100696.03;;;19.80;83.52
72857;BME280;62742;52.136;4.500;2023-07-29T07:21:23;100703.88;;;19.66;84.41
72857;BME280;62742;52.136;4.500;2023-07-29T07:23:50;100697.88;;;19.62;84.37
72857;BME280;62742;52.136;4.500;2023-07-29T07:26:17;100707.97;;;19.73;84.51
72857;BME280;62742;52.136;4.500;2023-07-29T07:28:43;100711.91;;;19.97;82.70
72857;BME280;62742;52.136;4.500;2023-07-29T07:31:10;100706.31;;;20.02;81.59
72857;BME280;62742;52.136;4.500;2023-07-29T07:33:36;100715.34;;;20.46;80.46
72857;BME280;62742;52.136;4.500;2023-07-29T07:36:03;100696.75;;;20.89;77.32
72857;BME280;62742;52.136;4.500;2023-07-29T07:38:29;100703.06;;;21.31;74.67
72857;BME280;62742;52.136;4.500;2023-07-29T07:40:56;100706.03;;;21.12;73.78
72857;BME280;62742;52.136;4.500;2023-07-29T07:43:23;100716.97;;;20.64;74.56
72857;BME280;62742;52.136;4.500;2023-07-29T07:45:51;100710.31;;;20.55;74.85
72857;BME280;62742;52.136;4.500;2023-07-29T07:48:24;100717.69;;;20.36;75.03
72857;BME280;62742;52.136;4.500;2023-07-29T07:50:50;100721.97;;;20.24;75.43
72857;BME280;62742;52.136;4.500;2023-07-29T07:53:16;100721.00;;;20.25;77.11
72857;BME280;62742;52.136;4.500;2023-07-29T07:55:43;100725.31;;;20.28;77.25
72857;BME280;62742;52.136;4.500;2023-07-29T07:58:09;100716.25;;;20.30;76.60
72857;BME280;62742;52.136;4.500;2023-07-29T08:00:36;100720.84;;;20.43;75.87
72857;BME280;62742;52.136;4.500;2023-07-29T08:03:03;100725.94;;;20.47;75.81
72857;BME280;62742;52.136;4.500;2023-07-29T08:05:29;100729.88;;;20.56;74.84
72857;BME280;62742;52.136;4.500;2023-07-29T08:07:57;100731.69;;;20.55;75.69
72857;BME280;62742;52.136;4.500;2023-07-29T08:10:24;100728.34;;;20.52;75.72
72857;BME280;62742;52.136;4.500;2023-07-29T08:12:50;100733.38;;;20.72;75.47
72857;BME280;62742;52.136;4.500;2023-07-29T08:15:17;100733.22;;;20.90;75.28
72857;BME280;62742;52.136;4.500;2023-07-29T08:17:43;100729.78;;;21.02;74.20
72857;BME280;62742;52.136;4.500;2023-07-29T08:20:11;100744.47;;;20.95;74.73
72857;BME280;62742;52.136;4.500;2023-07-29T08:22:38;100737.63;;;21.05;73.65
72857;BME280;62742;52.136;4.500;2023-07-29T08:25:04;100740.50;;;21.17;73.87
72857;BME280;62742;52.136;4.500;2023-07-29T08:27:33;100735.53;;;21.10;73.40
72857;BME280;62742;52.136;4.500;2023-07-29T08:30:00;100742.03;;;21.35;72.71
72857;BME280;62742;52.136;4.500;2023-07-29T08:32:27;100743.84;;;21.20;72.69
72857;BME280;62742;52.136;4.500;2023-07-29T08:34:53;100736.94;;;21.45;72.19
72857;BME280;62742;52.136;4.500;2023-07-29T08:37:20;100734.56;;;21.69;70.49
72857;BME280;62742;52.136;4.500;2023-07-29T08:39:46;100730.69;;;21.88;69.24
72857;BME280;62742;52.136;4.500;2023-07-29T08:42:13;100724.91;;;22.08;69.60
72857;BME280;62742;52.136;4.500;2023-07-29T08:44:45;100735.59;;;22.50;68.69
72857;BME280;62742;52.136;4.500;2023-07-29T08:47:17;100730.00;;;22.53;67.44
72857;BME280;62742;52.136;4.500;2023-07-29T08:49:47;100746.78;;;22.42;66.87
72857;BME280;62742;52.136;4.500;2023-07-29T08:52:14;100743.81;;;22.19;66.19
72857;BME280;62742;52.136;4.500;2023-07-29T08:54:42;100744.59;;;21.80;67.43
72857;BME280;62742;52.136;4.500;2023-07-29T08:57:09;100747.94;;;21.69;68.30
72857;BME280;62742;52.136;4.500;2023-07-29T08:59:36;100743.38;;;21.71;69.69
72857;BME280;62742;52.136;4.500;2023-07-29T09:02:04;100743.16;;;21.74;68.64
72857;BME280;62742;52.136;4.500;2023-07-29T09:04:30;100742.03;;;21.64;69.45
72857;BME280;62742;52.136;4.500;2023-07-29T09:06:58;100747.88;;;21.56;70.38
72857;BME280;62742;52.136;4.500;2023-07-29T09:09:25;100750.13;;;21.62;69.71
72857;BME280;62742;52.136;4.500;2023-07-29T09:11:52;100755.50;;;21.62;70.95
72857;BME280;62742;52.136;4.500;2023-07-29T09:14:19;100743.00;;;21.48;71.20
72857;BME280;62742;52.136;4.500;2023-07-29T09:16:46;100751.22;;;21.60;71.67
72857;BME280;62742;52.136;4.500;2023-07-29T09:19:12;100749.56;;;21.57;72.05
72857;BME280;62742;52.136;4.500;2023-07-29T09:21:40;100741.34;;;21.60;72.32
72857;BME280;62742;52.136;4.500;2023-07-29T09:24:07;100738.78;;;21.59;72.63
72857;BME280;62742;52.136;4.500;2023-07-29T09:26:35;100732.66;;;21.71;71.66
72857;BME280;62742;52.136;4.500;2023-07-29T09:29:02;100737.03;;;21.87;71.85
72857;BME280;62742;52.136;4.500;2023-07-29T09:31:29;100751.53;;;21.82;71.47
72857;BME280;62742;52.136;4.500;2023-07-29T09:33:58;100744.50;;;21.81;71.12
72857;BME280;62742;52.136;4.500;2023-07-29T09:36:26;100761.41;;;21.82;71.47
72857;BME280;62742;52.136;4.500;2023-07-29T09:38:56;100757.94;;;21.94;71.75
72857;BME280;62742;52.136;4.500;2023-07-29T09:41:25;100755.19;;;21.81;71.97
72857;BME280;62742;52.136;4.500;2023-07-29T09:43:57;100742.97;;;21.77;71.02
72857;BME280;62742;52.136;4.500;2023-07-29T09:46:32;100746.81;;;21.59;72.09
72857;BME280;62742;52.136;4.500;2023-07-29T09:49:02;100735.91;;;21.62;71.50
72857;BME280;62742;52.136;4.500;2023-07-29T09:51:41;100741.84;;;21.67;71.72
72857;BME280;62742;52.136;4.500;2023-07-29T09:54:08;100735.31;;;21.85;71.00
72857;BME280;62742;52.136;4.500;2023-07-29T09:56:40;100741.22;;;21.91;72.05
72857;BME280;62742;52.136;4.500;2023-07-29T09:59:09;100739.19;;;21.94;71.68
72857;BME280;62742;52.136;4.500;2023-07-29T10:01:37;100735.38;;;21.98;70.99
72857;BME280;62742;52.136;4.500;2023-07-29T10:04:05;100737.88;;;21.87;71.63
72857;BME280;62742;52.136;4.500;2023-07-29T10:06:34;100742.97;;;21.77;72.57
72857;BME280;62742;52.136;4.500;2023-07-29T10:09:00;100738.38;;;21.79;72.94
72857;BME280;62742;52.136;4.500;2023-07-29T10:11:28;100744.91;;;21.46;73.51
72857;BME280;62742;52.136;4.500;2023-07-29T10:13:55;100746.34;;;21.23;75.21
72857;BME280;62742;52.136;4.500;2023-07-29T10:16:27;100755.09;;;21.25;77.75
72857;BME280;62742;52.136;4.500;2023-07-29T10:18:54;100760.34;;;21.41;77.59
72857;BME280;62742;52.136;4.500;2023-07-29T10:21:22;100758.81;;;21.23;77.99
72857;BME280;62742;52.136;4.500;2023-07-29T10:23:50;100781.34;;;21.19;76.82
72857;BME280;62742;52.136;4.500;2023-07-29T10:26:23;100778.69;;;21.04;77.28
72857;BME280;62742;52.136;4.500;2023-07-29T10:28:54;100780.56;;;21.02;77.96
72857;BME280;62742;52.136;4.500;2023-07-29T10:31:27;100764.81;;;21.26;78.38
72857;BME280;62742;52.136;4.500;2023-07-29T10:33:55;100775.09;;;21.48;78.73
72857;BME280;62742;52.136;4.500;2023-07-29T10:36:23;100773.84;;;21.54;79.19
72857;BME280;62742;52.136;4.500;2023-07-29T10:38:51;100761.50;;;21.80;79.13
72857;BME280;62742;52.136;4.500;2023-07-29T10:41:18;100776.31;;;21.72;78.63
72857;BME280;62742;52.136;4.500;2023-07-29T10:43:44;100769.69;;;21.92;76.97
72857;BME280;62742;52.136;4.500;2023-07-29T10:48:52;100768.84;;;22.18;74.60
72857;BME280;62742;52.136;4.500;2023-07-29T10:51:35;100758.84;;;22.08;74.52
72857;BME280;62742;52.136;4.500;2023-07-29T10:54:10;100751.22;;;22.01;72.64
72857;BME280;62742;52.136;4.500;2023-07-29T10:56:49;100759.56;;;21.97;73.09
72857;BME280;62742;52.136;4.500;2023-07-29T11:01:56;100757.50;;;21.59;74.47
72857;BME280;62742;52.136;4.500;2023-07-29T11:04:28;100744.97;;;21.74;74.85
72857;BME280;62742;52.136;4.500;2023-07-29T11:15:25;100749.03;;;21.94;75.41
72857;BME280;62742;52.136;4.500;2023-07-29T11:18:01;100746.66;;;21.89;75.68
72857;BME280;62742;52.136;4.500;2023-07-29T11:20:48;100743.56;;;21.68;76.84
72857;BME280;62742;52.136;4.500;2023-07-29T11:23:15;100737.66;;;21.48;76.52
72857;BME280;62742;52.136;4.500;2023-07-29T11:25:44;100752.91;;;21.32;78.08
72857;BME280;62742;52.136;4.500;2023-07-29T11:28:11;100757.63;;;20.84;79.88
72857;BME280;62742;52.136;4.500;2023-07-29T11:30:42;100759.63;;;20.50;81.74
72857;BME280;62742;52.136;4.500;2023-07-29T11:33:10;100762.38;;;20.48;81.60
72857;BME280;62742;52.136;4.500;2023-07-29T11:35:42;100763.03;;;20.52;81.23
72857;BME280;62742;52.136;4.500;2023-07-29T11:38:18;100768.72;;;20.62;81.31
72857;BME280;62742;52.136;4.500;2023-07-29T11:41:19;100775.63;;;20.80;81.75
72857;BME280;62742;52.136;4.500;2023-07-29T11:43:47;100761.84;;;21.02;81.45
72857;BME280;62742;52.136;4.500;2023-07-29T11:46:24;100768.28;;;21.28;78.73
72857;BME280;62742;52.136;4.500;2023-07-29T11:48:54;100771.13;;;21.11;80.14
72857;BME280;62742;52.136;4.500;2023-07-29T11:51:28;100777.16;;;21.15;80.43
72857;BME280;62742;52.136;4.500;2023-07-29T11:53:57;100762.09;;;21.42;78.54
72857;BME280;62742;52.136;4.500;2023-07-29T11:56:24;100762.38;;;21.66;77.29
72857;BME280;62742;52.136;4.500;2023-07-29T11:58:55;100762.84;;;21.73;77.60
72857;BME280;62742;52.136;4.500;2023-07-29T12:01:22;100760.09;;;21.60;76.09
72857;BME280;62742;52.136;4.500;2023-07-29T12:03:51;100756.19;;;21.66;77.71
72857;BME280;62742;52.136;4.500;2023-07-29T12:06:24;100757.31;;;21.76;75.88
72857;BME280;62742;52.136;4.500;2023-07-29T12:08:54;100752.34;;;21.70;75.28
72857;BME280;62742;52.136;4.500;2023-07-29T12:11:22;100758.84;;;21.66;75.70
72857;BME280;62742;52.136;4.500;2023-07-29T12:13:48;100763.72;;;21.59;76.32
72857;BME280;62742;52.136;4.500;2023-07-29T12:16:18;100756.16;;;21.37;75.40
72857;BME280;62742;52.136;4.500;2023-07-29T12:18:44;100750.03;;;21.78;75.61
72857;BME280;62742;52.136;4.500;2023-07-29T12:21:14;100744.38;;;22.52;74.64
72857;BME280;62742;52.136;4.500;2023-07-29T12:23:40;100735.66;;;23.27;72.59
72857;BME280;62742;52.136;4.500;2023-07-29T12:26:07;100741.66;;;23.30;68.98
72857;BME280;62742;52.136;4.500;2023-07-29T12:28:33;100741.66;;;23.05;70.58
72857;BME280;62742;52.136;4.500;2023-07-29T12:31:00;100738.34;;;23.27;70.16
72857;BME280;62742;52.136;4.500;2023-07-29T12:33:36;100744.25;;;23.32;70.06
72857;BME280;62742;52.136;4.500;2023-07-29T12:36:07;100740.34;;;23.49;69.48
72857;BME280;62742;52.136;4.500;2023-07-29T12:38:36;100748.63;;;23.07;67.52
72857;BME280;62742;52.136;4.500;2023-07-29T12:41:05;100744.03;;;23.22;68.00
72857;BME280;62742;52.136;4.500;2023-07-29T12:43:37;100748.69;;;23.83;67.20
72857;BME280;62742;52.136;4.500;2023-07-29T12:46:03;100745.13;;;23.69;65.48
72857;BME280;62742;52.136;4.500;2023-07-29T12:48:31;100745.25;;;23.55;64.84
72857;BME280;62742;52.136;4.500;2023-07-29T12:50:57;100746.19;;;23.30;66.19
72857;BME280;62742;52.136;4.500;2023-07-29T12:53:34;100750.03;;;23.39;65.50
72857;BME280;62742;52.136;4.500;2023-07-29T12:56:18;100738.59;;;24.11;66.07
72857;BME280;62742;52.136;4.500;2023-07-29T12:58:45;100734.66;;;24.63;62.11
72857;BME280;62742;52.136;4.500;2023-07-29T13:01:13;100740.25;;;24.24;62.11
72857;BME280;62742;52.136;4.500;2023-07-29T13:03:44;100739.56;;;23.73;64.09
72857;BME280;62742;52.136;4.500;2023-07-29T13:06:12;100742.22;;;24.09;64.16
72857;BME280;62742;52.136;4.500;2023-07-29T13:08:39;100747.88;;;23.81;64.29
72857;BME280;62742;52.136;4.500;2023-07-29T13:11:06;100752.72;;;23.39;65.32
72857;BME280;62742;52.136;4.500;2023-07-29T13:13:32;100752.78;;;23.50;64.68
72857;BME280;62742;52.136;4.500;2023-07-29T13:16:04;100754.41;;;23.52;64.56